EAA61R LRCL-LROP
Flight info
| Callsign | EAA61R |
|---|---|
| Flight time | 0h 55m |
| Altitude | 33000 |
| Route | IRLOX DCT BIVBU DCT TOSVI |
| Aircraft | A321/M-SDE3FGHIRWY/LB1 |
Departure
| Time | 2026-04-23 14:58 |
|---|---|
| Airport | Avram Iancu Cluj International Airport (LRCL) |
Arrival
| Time | 2026-04-23 15:53 |
|---|---|
| Airport | Bucharest Henri Coandă International Airport (LROP) |
| Time | Latitude | Longitude | Altitude | Speed | Heading |
|---|---|---|---|---|---|
| 2026-04-23 14:54 | 46.78319 | 23.68775 | 1038 ft | 0 kts | 95° |
| 2026-04-23 14:54 | 46.78318 | 23.68810 | 1038 ft | 13 kts | 89° |
| 2026-04-23 14:54 | 46.78327 | 23.68825 | 1038 ft | 1 kts | 5° |
| 2026-04-23 14:55 | 46.78351 | 23.68771 | 1038 ft | 12 kts | 291° |
| 2026-04-23 14:55 | 46.78401 | 23.68667 | 1038 ft | 15 kts | 333° |
| 2026-04-23 14:55 | 46.78510 | 23.68650 | 1040 ft | 16 kts | 26° |
| 2026-04-23 14:55 | 46.78542 | 23.68809 | 1039 ft | 19 kts | 80° |
| 2026-04-23 14:56 | 46.78573 | 23.69043 | 1038 ft | 27 kts | 80° |
| 2026-04-23 14:56 | 46.78612 | 23.69337 | 1039 ft | 32 kts | 79° |
| 2026-04-23 14:56 | 46.78654 | 23.69679 | 1039 ft | 35 kts | 79° |
| 2026-04-23 14:56 | 46.78658 | 23.69828 | 1039 ft | 9 kts | 102° |
| 2026-04-23 14:57 | 46.78673 | 23.69908 | 1039 ft | 9 kts | 28° |
| 2026-04-23 14:57 | 46.78723 | 23.69873 | 1039 ft | 9 kts | 294° |
| 2026-04-23 14:57 | 46.78706 | 23.69794 | 1039 ft | 9 kts | 224° |
| 2026-04-23 14:57 | 46.78666 | 23.69722 | 1039 ft | 17 kts | 250° |
| 2026-04-23 14:58 | 46.78580 | 23.69140 | 1039 ft | 99 kts | 258° |
| 2026-04-23 14:58 | 46.78405 | 23.67820 | 1038 ft | 167 kts | 259° |
| 2026-04-23 14:58 | 46.78201 | 23.66003 | 1553 ft | 191 kts | 265° |
| 2026-04-23 14:58 | 46.77986 | 23.63982 | 2208 ft | 211 kts | 249° |
| 2026-04-23 14:59 | 46.77398 | 23.61959 | 2977 ft | 222 kts | 249° |
| 2026-04-23 14:59 | 46.76852 | 23.59789 | 3785 ft | 233 kts | 251° |
| 2026-04-23 14:59 | 46.76308 | 23.57487 | 4588 ft | 247 kts | 251° |
| 2026-04-23 14:59 | 46.75743 | 23.55049 | 5470 ft | 260 kts | 251° |
| 2026-04-23 15:00 | 46.75160 | 23.52505 | 6420 ft | 269 kts | 251° |
| 2026-04-23 15:00 | 46.74560 | 23.49889 | 7404 ft | 275 kts | 251° |
| 2026-04-23 15:00 | 46.74024 | 23.47196 | 8395 ft | 279 kts | 263° |
| 2026-04-23 15:00 | 46.74217 | 23.44397 | 9360 ft | 281 kts | 290° |
| 2026-04-23 15:01 | 46.75275 | 23.42023 | 10317 ft | 282 kts | 318° |
| 2026-04-23 15:01 | 46.76946 | 23.40548 | 11264 ft | 282 kts | 339° |
| 2026-04-23 15:01 | 46.78817 | 23.39653 | 12207 ft | 282 kts | 349° |
| 2026-04-23 15:01 | 46.80732 | 23.39759 | 13058 ft | 281 kts | 17° |
| 2026-04-23 15:02 | 46.81926 | 23.40553 | 13625 ft | 280 kts | 34° |
| 2026-04-23 15:02 | 46.83611 | 23.43389 | 14715 ft | 278 kts | 65° |
| 2026-04-23 15:02 | 46.84282 | 23.45990 | 15494 ft | 276 kts | 71° |
| 2026-04-23 15:02 | 46.84865 | 23.48650 | 16237 ft | 274 kts | 72° |
| 2026-04-23 15:03 | 46.85434 | 23.51296 | 16949 ft | 272 kts | 72° |
| 2026-04-23 15:03 | 46.86006 | 23.53920 | 17619 ft | 270 kts | 72° |
| 2026-04-23 15:03 | 46.86583 | 23.56522 | 18249 ft | 269 kts | 72° |
| 2026-04-23 15:03 | 46.87165 | 23.59113 | 18816 ft | 269 kts | 71° |
| 2026-04-23 15:04 | 46.87769 | 23.61797 | 18921 ft | 287 kts | 71° |
| 2026-04-23 15:04 | 46.88407 | 23.64647 | 19058 ft | 303 kts | 74° |
| 2026-04-23 15:04 | 46.88585 | 23.67779 | 19159 ft | 319 kts | 101° |
| 2026-04-23 15:04 | 46.87732 | 23.70820 | 19278 ft | 334 kts | 129° |
| 2026-04-23 15:05 | 46.85961 | 23.73082 | 19464 ft | 346 kts | 147° |
| 2026-04-23 15:05 | 46.83939 | 23.74978 | 19865 ft | 352 kts | 147° |
| 2026-04-23 15:05 | 46.81875 | 23.76931 | 20412 ft | 354 kts | 147° |
| 2026-04-23 15:05 | 46.79820 | 23.78920 | 20947 ft | 356 kts | 146° |
| 2026-04-23 15:06 | 46.77753 | 23.80944 | 21433 ft | 359 kts | 146° |
| 2026-04-23 15:06 | 46.75670 | 23.82992 | 21911 ft | 362 kts | 146° |
| 2026-04-23 15:06 | 46.73578 | 23.85051 | 22386 ft | 365 kts | 146° |
| 2026-04-23 15:06 | 46.71464 | 23.87130 | 22850 ft | 367 kts | 146° |
| 2026-04-23 15:07 | 46.69340 | 23.89217 | 23304 ft | 370 kts | 146° |
| 2026-04-23 15:07 | 46.67192 | 23.91322 | 24119 ft | 374 kts | 141° |
| 2026-04-23 15:07 | 46.64989 | 23.93483 | 24174 ft | 388 kts | 142° |
| 2026-04-23 15:07 | 46.62714 | 23.95715 | 24280 ft | 400 kts | 142° |
| 2026-04-23 15:08 | 46.61130 | 23.97122 | 24399 ft | 409 kts | 152° |
| 2026-04-23 15:08 | 46.58370 | 23.98314 | 24717 ft | 417 kts | 169° |
| 2026-04-23 15:08 | 46.55501 | 23.98942 | 25194 ft | 417 kts | 170° |
| 2026-04-23 15:09 | 46.48754 | 24.00297 | 26054 ft | 424 kts | 170° |
| 2026-04-23 15:09 | 46.46773 | 24.00701 | 26329 ft | 425 kts | 170° |
| 2026-04-23 15:09 | 46.43846 | 24.01309 | 26832 ft | 424 kts | 170° |
| 2026-04-23 15:09 | 46.40975 | 24.01916 | 27350 ft | 421 kts | 169° |
| 2026-04-23 15:10 | 46.38079 | 24.02535 | 27828 ft | 420 kts | 169° |
| 2026-04-23 15:10 | 46.35189 | 24.03157 | 28262 ft | 421 kts | 169° |
| 2026-04-23 15:10 | 46.32289 | 24.03783 | 28716 ft | 420 kts | 169° |
| 2026-04-23 15:10 | 46.29398 | 24.04406 | 29161 ft | 420 kts | 169° |
| 2026-04-23 15:11 | 46.26511 | 24.05028 | 29574 ft | 420 kts | 169° |
| 2026-04-23 15:11 | 46.23627 | 24.05648 | 29956 ft | 419 kts | 169° |
| 2026-04-23 15:11 | 46.20746 | 24.06266 | 30324 ft | 418 kts | 169° |
| 2026-04-23 15:11 | 46.17863 | 24.06884 | 30638 ft | 418 kts | 169° |
| 2026-04-23 15:12 | 46.14984 | 24.07501 | 30931 ft | 419 kts | 169° |
| 2026-04-23 15:12 | 46.12095 | 24.08119 | 31239 ft | 419 kts | 169° |
| 2026-04-23 15:12 | 46.09214 | 24.08734 | 31555 ft | 418 kts | 169° |
| 2026-04-23 15:12 | 46.06334 | 24.09348 | 31840 ft | 419 kts | 169° |
| 2026-04-23 15:13 | 46.03449 | 24.09964 | 32114 ft | 419 kts | 169° |
| 2026-04-23 15:13 | 46.00569 | 24.10577 | 32404 ft | 419 kts | 169° |
| 2026-04-23 15:13 | 45.97720 | 24.11184 | 32659 ft | 419 kts | 169° |
| 2026-04-23 15:13 | 45.94839 | 24.11796 | 32913 ft | 419 kts | 169° |
| 2026-04-23 15:14 | 45.91942 | 24.12412 | 32900 ft | 424 kts | 169° |
| 2026-04-23 15:14 | 45.86105 | 24.13649 | 32900 ft | 420 kts | 169° |
| 2026-04-23 15:15 | 45.80368 | 24.14862 | 32908 ft | 414 kts | 169° |
| 2026-04-23 15:15 | 45.74670 | 24.16063 | 32920 ft | 415 kts | 169° |
| 2026-04-23 15:16 | 45.68929 | 24.17265 | 32922 ft | 417 kts | 169° |
| 2026-04-23 15:16 | 45.63325 | 24.18940 | 32898 ft | 410 kts | 148° |
| 2026-04-23 15:16 | 45.60962 | 24.21091 | 32945 ft | 399 kts | 136° |
| 2026-04-23 15:17 | 45.58775 | 24.23543 | 32912 ft | 401 kts | 135° |
| 2026-04-23 15:17 | 45.54440 | 24.28551 | 32917 ft | 402 kts | 135° |
| 2026-04-23 15:18 | 45.50069 | 24.33556 | 32913 ft | 402 kts | 135° |
| 2026-04-23 15:18 | 45.45688 | 24.38505 | 32912 ft | 401 kts | 135° |
| 2026-04-23 15:19 | 45.41331 | 24.43387 | 32755 ft | 393 kts | 135° |
| 2026-04-23 15:19 | 45.39212 | 24.45756 | 32338 ft | 392 kts | 135° |
| 2026-04-23 15:19 | 45.37063 | 24.48160 | 31821 ft | 395 kts | 135° |
| 2026-04-23 15:19 | 45.34888 | 24.50594 | 31320 ft | 398 kts | 135° |
| 2026-04-23 15:20 | 45.32703 | 24.53035 | 30824 ft | 400 kts | 135° |
| 2026-04-23 15:20 | 45.30514 | 24.55476 | 30403 ft | 401 kts | 135° |
| 2026-04-23 15:20 | 45.28320 | 24.57919 | 29968 ft | 401 kts | 135° |
| 2026-04-23 15:20 | 45.26124 | 24.60361 | 29425 ft | 402 kts | 135° |
| 2026-04-23 15:21 | 45.23916 | 24.62815 | 28883 ft | 403 kts | 135° |
| 2026-04-23 15:21 | 45.21699 | 24.65276 | 28346 ft | 404 kts | 135° |
| 2026-04-23 15:21 | 45.19481 | 24.67737 | 27811 ft | 406 kts | 135° |
| 2026-04-23 15:21 | 45.17254 | 24.70204 | 27290 ft | 407 kts | 135° |
| 2026-04-23 15:22 | 45.15021 | 24.72675 | 26783 ft | 407 kts | 135° |
| 2026-04-23 15:22 | 45.12811 | 24.75119 | 26291 ft | 408 kts | 136° |
| 2026-04-23 15:22 | 45.10541 | 24.77627 | 25803 ft | 409 kts | 136° |
| 2026-04-23 15:22 | 45.08327 | 24.80068 | 25383 ft | 407 kts | 136° |
| 2026-04-23 15:23 | 45.06094 | 24.82526 | 25035 ft | 404 kts | 136° |
| 2026-04-23 15:23 | 45.03890 | 24.84951 | 24700 ft | 400 kts | 136° |
| 2026-04-23 15:23 | 45.01699 | 24.87360 | 24347 ft | 398 kts | 136° |
| 2026-04-23 15:23 | 44.99518 | 24.89756 | 23982 ft | 396 kts | 136° |
| 2026-04-23 15:24 | 44.97351 | 24.92137 | 23629 ft | 393 kts | 136° |
| 2026-04-23 15:24 | 44.95198 | 24.94499 | 23252 ft | 391 kts | 136° |
| 2026-04-23 15:24 | 44.93059 | 24.96843 | 22848 ft | 388 kts | 136° |
| 2026-04-23 15:24 | 44.90932 | 24.99173 | 22442 ft | 386 kts | 137° |
| 2026-04-23 15:25 | 44.88812 | 25.01492 | 22040 ft | 384 kts | 137° |
| 2026-04-23 15:25 | 44.86707 | 25.03793 | 21682 ft | 380 kts | 137° |
| 2026-04-23 15:25 | 44.84625 | 25.06067 | 21327 ft | 377 kts | 137° |
| 2026-04-23 15:25 | 44.82555 | 25.08326 | 20944 ft | 375 kts | 137° |
| 2026-04-23 15:26 | 44.80489 | 25.10580 | 20558 ft | 374 kts | 137° |
| 2026-04-23 15:26 | 44.78438 | 25.12812 | 20206 ft | 371 kts | 137° |
| 2026-04-23 15:26 | 44.76483 | 25.15144 | 19817 ft | 364 kts | 125° |
| 2026-04-23 15:26 | 44.75157 | 25.18078 | 19440 ft | 351 kts | 106° |
| 2026-04-23 15:27 | 44.74499 | 25.21289 | 19064 ft | 343 kts | 97° |
| 2026-04-23 15:27 | 44.74015 | 25.24570 | 18628 ft | 343 kts | 96° |
| 2026-04-23 15:27 | 44.73553 | 25.27870 | 18208 ft | 344 kts | 96° |
| 2026-04-23 15:27 | 44.73082 | 25.31179 | 17648 ft | 347 kts | 96° |
| 2026-04-23 15:28 | 44.72591 | 25.34523 | 17040 ft | 352 kts | 97° |
| 2026-04-23 15:28 | 44.72082 | 25.37900 | 16445 ft | 355 kts | 97° |
| 2026-04-23 15:28 | 44.71558 | 25.41323 | 15858 ft | 359 kts | 98° |
| 2026-04-23 15:28 | 44.71027 | 25.44773 | 15285 ft | 362 kts | 98° |
| 2026-04-23 15:29 | 44.70495 | 25.48222 | 14712 ft | 359 kts | 98° |
| 2026-04-23 15:29 | 44.69967 | 25.51627 | 14145 ft | 354 kts | 98° |
| 2026-04-23 15:29 | 44.69444 | 25.54998 | 13581 ft | 350 kts | 98° |
| 2026-04-23 15:29 | 44.68928 | 25.58325 | 12961 ft | 347 kts | 99° |
| 2026-04-23 15:30 | 44.68417 | 25.61616 | 12354 ft | 343 kts | 99° |
| 2026-04-23 15:30 | 44.67911 | 25.64876 | 11762 ft | 340 kts | 99° |
| 2026-04-23 15:30 | 44.67413 | 25.68072 | 11172 ft | 337 kts | 100° |
| 2026-04-23 15:30 | 44.66913 | 25.71275 | 10604 ft | 334 kts | 100° |
| 2026-04-23 15:31 | 44.66418 | 25.74444 | 10043 ft | 332 kts | 101° |
| 2026-04-23 15:31 | 44.65923 | 25.77610 | 9457 ft | 329 kts | 101° |
| 2026-04-23 15:31 | 44.65433 | 25.80733 | 8851 ft | 327 kts | 101° |
| 2026-04-23 15:31 | 44.64944 | 25.83843 | 8236 ft | 325 kts | 101° |
| 2026-04-23 15:32 | 44.64484 | 25.86945 | 7644 ft | 322 kts | 95° |
| 2026-04-23 15:32 | 44.64546 | 25.90045 | 7069 ft | 316 kts | 81° |
| 2026-04-23 15:32 | 44.64813 | 25.93082 | 6534 ft | 309 kts | 80° |
| 2026-04-23 15:32 | 44.65066 | 25.96019 | 5978 ft | 297 kts | 81° |
| 2026-04-23 15:33 | 44.65301 | 25.98860 | 5385 ft | 287 kts | 81° |
| 2026-04-23 15:33 | 44.65518 | 26.01583 | 4835 ft | 274 kts | 81° |
| 2026-04-23 15:33 | 44.65720 | 26.04162 | 4231 ft | 264 kts | 81° |
| 2026-04-23 15:33 | 44.65899 | 26.06665 | 3817 ft | 250 kts | 81° |
| 2026-04-23 15:34 | 44.66069 | 26.09015 | 3469 ft | 236 kts | 80° |
| 2026-04-23 15:34 | 44.66230 | 26.11266 | 3121 ft | 225 kts | 80° |
| 2026-04-23 15:34 | 44.66376 | 26.13407 | 2784 ft | 215 kts | 80° |
| 2026-04-23 15:34 | 44.66506 | 26.15454 | 2522 ft | 203 kts | 80° |
| 2026-04-23 15:35 | 44.66625 | 26.17381 | 2525 ft | 198 kts | 81° |
| 2026-04-23 15:35 | 44.66746 | 26.19315 | 2514 ft | 197 kts | 81° |
| 2026-04-23 15:35 | 44.66865 | 26.21226 | 2496 ft | 197 kts | 81° |
| 2026-04-23 15:35 | 44.66984 | 26.23133 | 2491 ft | 195 kts | 81° |
| 2026-04-23 15:36 | 44.67094 | 26.25030 | 2499 ft | 195 kts | 81° |
| 2026-04-23 15:36 | 44.67204 | 26.26899 | 2496 ft | 195 kts | 81° |
| 2026-04-23 15:36 | 44.67325 | 26.28808 | 2500 ft | 196 kts | 81° |
| 2026-04-23 15:36 | 44.67440 | 26.30724 | 2498 ft | 198 kts | 81° |
| 2026-04-23 15:37 | 44.67555 | 26.32665 | 2515 ft | 201 kts | 81° |
| 2026-04-23 15:37 | 44.67661 | 26.34640 | 2493 ft | 202 kts | 80° |
| 2026-04-23 15:37 | 44.67735 | 26.35928 | 2493 ft | 198 kts | 83° |
| 2026-04-23 15:37 | 44.67870 | 26.38498 | 2494 ft | 199 kts | 80° |
| 2026-04-23 15:38 | 44.67965 | 26.40452 | 2504 ft | 202 kts | 81° |
| 2026-04-23 15:38 | 44.68065 | 26.42421 | 2499 ft | 202 kts | 82° |
| 2026-04-23 15:38 | 44.68185 | 26.44371 | 2495 ft | 199 kts | 83° |
| 2026-04-23 15:38 | 44.68294 | 26.46286 | 2497 ft | 196 kts | 83° |
| 2026-04-23 15:39 | 44.68400 | 26.48200 | 2485 ft | 197 kts | 83° |
| 2026-04-23 15:39 | 44.68500 | 26.50115 | 2497 ft | 196 kts | 82° |
| 2026-04-23 15:39 | 44.68598 | 26.52035 | 2496 ft | 197 kts | 81° |
| 2026-04-23 15:39 | 44.68691 | 26.53967 | 2481 ft | 199 kts | 81° |
| 2026-04-23 15:40 | 44.68784 | 26.55883 | 2500 ft | 200 kts | 80° |
| 2026-04-23 15:40 | 44.68882 | 26.57864 | 2496 ft | 200 kts | 80° |
| 2026-04-23 15:40 | 44.68962 | 26.59775 | 2471 ft | 197 kts | 80° |
| 2026-04-23 15:40 | 44.69038 | 26.61697 | 2488 ft | 198 kts | 79° |
| 2026-04-23 15:41 | 44.69132 | 26.63650 | 2494 ft | 200 kts | 80° |
| 2026-04-23 15:41 | 44.69225 | 26.65619 | 2493 ft | 203 kts | 81° |
| 2026-04-23 15:41 | 44.69310 | 26.67599 | 2489 ft | 201 kts | 82° |
| 2026-04-23 15:41 | 44.69393 | 26.69539 | 2477 ft | 199 kts | 84° |
| 2026-04-23 15:42 | 44.69559 | 26.71470 | 2406 ft | 203 kts | 83° |
| 2026-04-23 15:42 | 44.69417 | 26.73466 | 2329 ft | 208 kts | 100° |
| 2026-04-23 15:42 | 44.68881 | 26.75356 | 2235 ft | 210 kts | 124° |
| 2026-04-23 15:42 | 44.67755 | 26.76605 | 2108 ft | 209 kts | 165° |
| 2026-04-23 15:43 | 44.66384 | 26.76665 | 2168 ft | 190 kts | 203° |
| 2026-04-23 15:43 | 44.65309 | 26.75662 | 2222 ft | 185 kts | 241° |
| 2026-04-23 15:43 | 44.64985 | 26.74064 | 2392 ft | 171 kts | 270° |
| 2026-04-23 15:43 | 44.64848 | 26.72353 | 2520 ft | 182 kts | 265° |
| 2026-04-23 15:44 | 44.64624 | 26.70608 | 2538 ft | 176 kts | 268° |
| 2026-04-23 15:44 | 44.64459 | 26.68917 | 2695 ft | 175 kts | 266° |
| 2026-04-23 15:44 | 44.64220 | 26.67214 | 2733 ft | 182 kts | 261° |
| 2026-04-23 15:44 | 44.63826 | 26.65532 | 2715 ft | 179 kts | 257° |
| 2026-04-23 15:45 | 44.63433 | 26.63865 | 2849 ft | 181 kts | 260° |
| 2026-04-23 15:45 | 44.63212 | 26.62138 | 2930 ft | 180 kts | 269° |
| 2026-04-23 15:45 | 44.63006 | 26.60409 | 2825 ft | 183 kts | 262° |
| 2026-04-23 15:45 | 44.62765 | 26.58676 | 2580 ft | 181 kts | 265° |
| 2026-04-23 15:46 | 44.62476 | 26.56934 | 2220 ft | 184 kts | 260° |
| 2026-04-23 15:46 | 44.62146 | 26.55210 | 1891 ft | 181 kts | 259° |
| 2026-04-23 15:46 | 44.61828 | 26.53519 | 1633 ft | 174 kts | 265° |
| 2026-04-23 15:46 | 44.61751 | 26.51848 | 1354 ft | 172 kts | 271° |
| 2026-04-23 15:47 | 44.61600 | 26.50187 | 1122 ft | 172 kts | 264° |
| 2026-04-23 15:47 | 44.61398 | 26.48542 | 1026 ft | 169 kts | 263° |
| 2026-04-23 15:47 | 44.61160 | 26.46943 | 1014 ft | 172 kts | 259° |
| 2026-04-23 15:47 | 44.60800 | 26.45278 | 1219 ft | 181 kts | 257° |
| 2026-04-23 15:48 | 44.60449 | 26.43605 | 1527 ft | 177 kts | 259° |
| 2026-04-23 15:48 | 44.60217 | 26.41892 | 1750 ft | 182 kts | 267° |
| 2026-04-23 15:48 | 44.60087 | 26.40153 | 2065 ft | 179 kts | 270° |
| 2026-04-23 15:48 | 44.59949 | 26.38408 | 2053 ft | 179 kts | 268° |
| 2026-04-23 15:49 | 44.59812 | 26.36685 | 1869 ft | 176 kts | 267° |
| 2026-04-23 15:49 | 44.59599 | 26.34979 | 1626 ft | 182 kts | 262° |
| 2026-04-23 15:49 | 44.59344 | 26.33249 | 1212 ft | 181 kts | 267° |
| 2026-04-23 15:49 | 44.59233 | 26.31489 | 885 ft | 178 kts | 264° |
| 2026-04-23 15:50 | 44.58992 | 26.29817 | 757 ft | 171 kts | 261° |
| 2026-04-23 15:50 | 44.58772 | 26.28185 | 783 ft | 178 kts | 264° |
| 2026-04-23 15:50 | 44.58675 | 26.26460 | 963 ft | 174 kts | 274° |
| 2026-04-23 15:50 | 44.58679 | 26.24732 | 1096 ft | 180 kts | 269° |
| 2026-04-23 15:51 | 44.58495 | 26.22997 | 1078 ft | 181 kts | 256° |
| 2026-04-23 15:51 | 44.58016 | 26.21381 | 1082 ft | 176 kts | 247° |
| 2026-04-23 15:51 | 44.57479 | 26.19796 | 1045 ft | 183 kts | 257° |
| 2026-04-23 15:51 | 44.57186 | 26.18099 | 1063 ft | 172 kts | 259° |
| 2026-04-23 15:52 | 44.56998 | 26.16526 | 944 ft | 153 kts | 269° |
| 2026-04-23 15:52 | 44.56950 | 26.15099 | 935 ft | 140 kts | 269° |
| 2026-04-23 15:52 | 44.56879 | 26.13680 | 688 ft | 149 kts | 271° |
| 2026-04-23 15:52 | 44.56797 | 26.12253 | 535 ft | 146 kts | 266° |
| 2026-04-23 15:53 | 44.56690 | 26.10851 | 365 ft | 144 kts | 267° |
| 2026-04-23 15:53 | 44.56595 | 26.09492 | 317 ft | 129 kts | 264° |
| 2026-04-23 15:53 | 44.56519 | 26.08412 | 322 ft | 89 kts | 263° |
| 2026-04-23 15:53 | 44.56482 | 26.07918 | 321 ft | 35 kts | 264° |
| 2026-04-23 15:54 | 44.56518 | 26.07694 | 320 ft | 20 kts | 326° |
| 2026-04-23 15:54 | 44.56655 | 26.07668 | 322 ft | 20 kts | 11° |
| 2026-04-23 15:54 | 44.56719 | 26.07821 | 319 ft | 19 kts | 74° |
| 2026-04-23 15:54 | 44.56755 | 26.07999 | 321 ft | 19 kts | 74° |
| 2026-04-23 15:55 | 44.56792 | 26.08169 | 320 ft | 18 kts | 68° |
| 2026-04-23 15:55 | 44.56851 | 26.08320 | 320 ft | 17 kts | 62° |
| 2026-04-23 15:55 | 44.56901 | 26.08469 | 320 ft | 17 kts | 73° |
| 2026-04-23 15:55 | 44.56928 | 26.08622 | 320 ft | 16 kts | 85° |
| 2026-04-23 15:56 | 44.56936 | 26.08776 | 318 ft | 15 kts | 85° |
| 2026-04-23 15:56 | 44.56914 | 26.08850 | 319 ft | 8 kts | 174° |
| 2026-04-23 15:56 | 44.56861 | 26.08854 | 319 ft | 7 kts | 174° |
| 2026-04-23 15:56 | 44.56857 | 26.08855 | 319 ft | 0 kts | 174° |